sensor_id;sensor_type;location;lat;lon;timestamp;pressure;altitude;pressure_sealevel;temperature;humidity
78843;BME280;70542;53.774;-0.352;2024-02-16T00:05:22;100450;;;16.065;52
78843;BME280;70542;53.774;-0.352;2024-02-16T00:11:17;100460;;;15.723;52
78843;BME280;70542;53.774;-0.352;2024-02-16T00:17:27;100460;;;14.83;54
78843;BME280;70542;53.774;-0.352;2024-02-16T00:23:24;100460;;;15.566;52
78843;BME280;70542;53.774;-0.352;2024-02-16T00:29:32;100460;;;14.716;54
78843;BME280;70542;53.774;-0.352;2024-02-16T00:35:29;100470;;;14.001;56
78843;BME280;70542;53.774;-0.352;2024-02-16T00:41:38;100500;;;14.253;56
78843;BME280;70542;53.774;-0.352;2024-02-16T00:47:47;100510;;;13.073;58
78843;BME280;70542;53.774;-0.352;2024-02-16T00:53:44;100520;;;12.285;61
78843;BME280;70542;53.774;-0.352;2024-02-16T00:59:41;100520;;;10.734;65
78843;BME280;70542;53.774;-0.352;2024-02-16T01:05:50;100530;;;11.315;65
78843;BME280;70542;53.774;-0.352;2024-02-16T01:11:47;100530;;;11.073;65
78843;BME280;70542;53.774;-0.352;2024-02-16T01:17:59;100530;;;11.463;65
78843;BME280;70542;53.774;-0.352;2024-02-16T01:23:56;100530;;;11.042;65
78843;BME280;70542;53.774;-0.352;2024-02-16T01:30:06;100540;;;11.329;63
78843;BME280;70542;53.774;-0.352;2024-02-16T01:36:15;100530;;;11.775;63
78843;BME280;70542;53.774;-0.352;2024-02-16T01:42:12;100540;;;12.051;61
78843;BME280;70542;53.774;-0.352;2024-02-16T01:48:10;100540;;;11.408;63
78843;BME280;70542;53.774;-0.352;2024-02-16T01:54:19;100540;;;10.967;64
78843;BME280;70542;53.774;-0.352;2024-02-16T02:00:28;100540;;;12.8;60
78843;BME280;70542;53.774;-0.352;2024-02-16T02:06:25;100530;;;12.161;61
78843;BME280;70542;53.774;-0.352;2024-02-16T02:12:27;100530;;;11.298;63
78843;BME280;70542;53.774;-0.352;2024-02-16T02:18:36;100530;;;11.224;63
78843;BME280;70542;53.774;-0.352;2024-02-16T02:24:33;100520;;;11.751;62
78843;BME280;70542;53.774;-0.352;2024-02-16T02:30:30;100530;;;11.817;62
78843;BME280;70542;53.774;-0.352;2024-02-16T02:36:27;100540;;;11.937;62
78843;BME280;70542;53.774;-0.352;2024-02-16T02:42:23;100540;;;12.33;60
78843;BME280;70542;53.774;-0.352;2024-02-16T02:48:20;100540;;;12.73;60
78843;BME280;70542;53.774;-0.352;2024-02-16T02:54:17;100530;;;13.868;56
78843;BME280;70542;53.774;-0.352;2024-02-16T03:00:16;100550;;;13.892;55
78843;BME280;70542;53.774;-0.352;2024-02-16T03:06:25;100560;;;14.982;52
78843;BME280;70542;53.774;-0.352;2024-02-16T03:12:33;100550;;;13.151;55
78843;BME280;70542;53.774;-0.352;2024-02-16T03:18:31;100560;;;14.284;53
78843;BME280;70542;53.774;-0.352;2024-02-16T03:24:28;100560;;;15.598;50
78843;BME280;70542;53.774;-0.352;2024-02-16T03:30:25;100580;;;15.309;49
78843;BME280;70542;53.774;-0.352;2024-02-16T03:36:22;100580;;;14.085;52
78843;BME280;70542;53.774;-0.352;2024-02-16T03:42:19;100580;;;12.966;55
78843;BME280;70542;53.774;-0.352;2024-02-16T03:48:16;100580;;;13.228;56
78843;BME280;70542;53.774;-0.352;2024-02-16T03:54:13;100570;;;14.72;52
78843;BME280;70542;53.774;-0.352;2024-02-16T04:00:27;100580;;;13.78;53
78843;BME280;70542;53.774;-0.352;2024-02-16T04:06:24;100600;;;13.497;55
78843;BME280;70542;53.774;-0.352;2024-02-16T04:12:21;100620;;;13.761;54
78843;BME280;70542;53.774;-0.352;2024-02-16T04:18:17;100620;;;12.67;56
78843;BME280;70542;53.774;-0.352;2024-02-16T04:24:26;100640;;;13.173;56
78843;BME280;70542;53.774;-0.352;2024-02-16T04:30:28;100640;;;12.779;56
78843;BME280;70542;53.774;-0.352;2024-02-16T04:36:25;100640;;;11.475;60
78843;BME280;70542;53.774;-0.352;2024-02-16T04:42:22;100640;;;12.461;58
78843;BME280;70542;53.774;-0.352;2024-02-16T04:48:31;100650;;;12.758;56
78843;BME280;70542;53.774;-0.352;2024-02-16T04:54:40;100660;;;13.549;54
78843;BME280;70542;53.774;-0.352;2024-02-16T05:00:38;100680;;;12.613;56
78843;BME280;70542;53.774;-0.352;2024-02-16T05:06:39;100680;;;13.243;55
78843;BME280;70542;53.774;-0.352;2024-02-16T05:12:35;100680;;;13.033;55
78843;BME280;70542;53.774;-0.352;2024-02-16T05:18:43;100680;;;13.208;54
78843;BME280;70542;53.774;-0.352;2024-02-16T05:24:52;100680;;;13.615;54
78843;BME280;70542;53.774;-0.352;2024-02-16T05:30:49;100700;;;12.975;54
78843;BME280;70542;53.774;-0.352;2024-02-16T05:36:47;100710;;;14.198;53
78843;BME280;70542;53.774;-0.352;2024-02-16T05:42:46;100720;;;12.29;57
78843;BME280;70542;53.774;-0.352;2024-02-16T05:48:55;100720;;;12.346;58
78843;BME280;70542;53.774;-0.352;2024-02-16T05:54:56;100730;;;11.694;61
78843;BME280;70542;53.774;-0.352;2024-02-16T06:01:05;100740;;;11.719;59
78843;BME280;70542;53.774;-0.352;2024-02-16T06:07:02;100740;;;11.232;61
78843;BME280;70542;53.774;-0.352;2024-02-16T06:13:15;100760;;;11.704;60
78843;BME280;70542;53.774;-0.352;2024-02-16T06:19:12;100770;;;10.852;64
78843;BME280;70542;53.774;-0.352;2024-02-16T06:25:09;100780;;;10.441;65
78843;BME280;70542;53.774;-0.352;2024-02-16T06:31:06;100780;;;10.896;63
78843;BME280;70542;53.774;-0.352;2024-02-16T06:37:03;100790;;;11.724;59
78843;BME280;70542;53.774;-0.352;2024-02-16T06:43:12;100800;;;12.5;57
78843;BME280;70542;53.774;-0.352;2024-02-16T06:49:20;100800;;;12.71;55
78843;BME280;70542;53.774;-0.352;2024-02-16T06:55:34;100810;;;13.353;54
78843;BME280;70542;53.774;-0.352;2024-02-16T07:01:44;100820;;;13.777;52
78843;BME280;70542;53.774;-0.352;2024-02-16T07:07:41;100840;;;12.488;55
78843;BME280;70542;53.774;-0.352;2024-02-16T07:13:38;100840;;;13.203;52
78843;BME280;70542;53.774;-0.352;2024-02-16T07:19:57;100860;;;14.036;51
78843;BME280;70542;53.774;-0.352;2024-02-16T07:26:07;100880;;;12.891;54
78843;BME280;70542;53.774;-0.352;2024-02-16T07:32:04;100890;;;12.639;53
78843;BME280;70542;53.774;-0.352;2024-02-16T07:38:02;100900;;;12.201;55
78843;BME280;70542;53.774;-0.352;2024-02-16T07:44:20;100910;;;11.231;57
78843;BME280;70542;53.774;-0.352;2024-02-16T07:50:18;100910;;;10.975;60
78843;BME280;70542;53.774;-0.352;2024-02-16T07:56:31;100920;;;11.869;56
78843;BME280;70542;53.774;-0.352;2024-02-16T08:02:40;100930;;;10.987;58
78843;BME280;70542;53.774;-0.352;2024-02-16T08:08:50;100940;;;11.539;57
78843;BME280;70542;53.774;-0.352;2024-02-16T08:14:51;100940;;;11.226;58
78843;BME280;70542;53.774;-0.352;2024-02-16T08:20:53;100960;;;10.652;59
78843;BME280;70542;53.774;-0.352;2024-02-16T08:26:50;100960;;;12.92;52
78843;BME280;70542;53.774;-0.352;2024-02-16T08:32:47;100980;;;12.734;53
78843;BME280;70542;53.774;-0.352;2024-02-16T08:38:56;100990;;;11.726;56
78843;BME280;70542;53.774;-0.352;2024-02-16T08:45:06;101000;;;10.16;61
78843;BME280;70542;53.774;-0.352;2024-02-16T08:51:02;101010;;;10.207;60
78843;BME280;70542;53.774;-0.352;2024-02-16T08:56:58;101010;;;9.762;61
78843;BME280;70542;53.774;-0.352;2024-02-16T09:02:55;101020;;;9.928;60
78843;BME280;70542;53.774;-0.352;2024-02-16T09:08:52;101040;;;9.717;61
78843;BME280;70542;53.774;-0.352;2024-02-16T09:15:01;101050;;;8.486;64
78843;BME280;70542;53.774;-0.352;2024-02-16T09:20:57;101050;;;9.586;60
78843;BME280;70542;53.774;-0.352;2024-02-16T09:26:54;101050;;;10.947;57
78843;BME280;70542;53.774;-0.352;2024-02-16T09:33:03;101060;;;11.197;57
78843;BME280;70542;53.774;-0.352;2024-02-16T09:39:12;101080;;;11.261;55
78843;BME280;70542;53.774;-0.352;2024-02-16T09:45:21;101090;;;10.906;58
78843;BME280;70542;53.774;-0.352;2024-02-16T09:51:30;101120;;;10.8;56
78843;BME280;70542;53.774;-0.352;2024-02-16T09:57:27;101120;;;11.998;54
78843;BME280;70542;53.774;-0.352;2024-02-16T10:03:26;101130;;;9.956;59
78843;BME280;70542;53.774;-0.352;2024-02-16T10:09:30;101150;;;9.96;58
78843;BME280;70542;53.774;-0.352;2024-02-16T10:15:44;101150;;;10.898;55
78843;BME280;70542;53.774;-0.352;2024-02-16T10:21:41;101160;;;11.192;55
78843;BME280;70542;53.774;-0.352;2024-02-16T10:27:46;101180;;;11.366;55
78843;BME280;70542;53.774;-0.352;2024-02-16T10:33:49;101190;;;12.39;53
78843;BME280;70542;53.774;-0.352;2024-02-16T10:39:48;101200;;;12.222;54
78843;BME280;70542;53.774;-0.352;2024-02-16T10:46:03;101200;;;12.622;54
78843;BME280;70542;53.774;-0.352;2024-02-16T10:52:04;101230;;;11.318;56
78843;BME280;70542;53.774;-0.352;2024-02-16T10:58:02;101230;;;11.346;56
78843;BME280;70542;53.774;-0.352;2024-02-16T11:04:07;101250;;;11.076;57
78843;BME280;70542;53.774;-0.352;2024-02-16T11:10:05;101260;;;10.259;58
78843;BME280;70542;53.774;-0.352;2024-02-16T11:16:13;101260;;;10.898;57
78843;BME280;70542;53.774;-0.352;2024-02-16T11:22:16;101270;;;10.558;56
78843;BME280;70542;53.774;-0.352;2024-02-16T11:28:14;101280;;;9.836;60
78843;BME280;70542;53.774;-0.352;2024-02-16T11:34:22;101280;;;10.578;58
78843;BME280;70542;53.774;-0.352;2024-02-16T11:40:21;101290;;;10.922;57
78843;BME280;70542;53.774;-0.352;2024-02-16T11:46:18;101300;;;11.319;56
78843;BME280;70542;53.774;-0.352;2024-02-16T11:52:15;101310;;;10.817;56
78843;BME280;70542;53.774;-0.352;2024-02-16T11:58:27;101320;;;10.521;57
78843;BME280;70542;53.774;-0.352;2024-02-16T12:04:43;101320;;;11.949;54
78843;BME280;70542;53.774;-0.352;2024-02-16T12:10:40;101320;;;13.126;49
78843;BME280;70542;53.774;-0.352;2024-02-16T12:16:38;101330;;;12.692;50
78843;BME280;70542;53.774;-0.352;2024-02-16T12:22:47;101330;;;13.087;49
78843;BME280;70542;53.774;-0.352;2024-02-16T12:28:44;101330;;;13.491;49
78843;BME280;70542;53.774;-0.352;2024-02-16T12:34:42;101320;;;13.209;50
78843;BME280;70542;53.774;-0.352;2024-02-16T12:40:50;101330;;;13.33;48
78843;BME280;70542;53.774;-0.352;2024-02-16T12:46:59;101340;;;12.515;51
78843;BME280;70542;53.774;-0.352;2024-02-16T12:52:57;101340;;;12.698;52
78843;BME280;70542;53.774;-0.352;2024-02-16T12:58:54;101350;;;13.927;48
78843;BME280;70542;53.774;-0.352;2024-02-16T13:05:03;101360;;;12.164;52
78843;BME280;70542;53.774;-0.352;2024-02-16T13:11:12;101360;;;12.069;53
78843;BME280;70542;53.774;-0.352;2024-02-16T13:17:26;101360;;;13.248;50
78843;BME280;70542;53.774;-0.352;2024-02-16T13:23:23;101380;;;11.127;53
78843;BME280;70542;53.774;-0.352;2024-02-16T13:29:21;101380;;;12.291;51
78843;BME280;70542;53.774;-0.352;2024-02-16T13:35:29;101390;;;12.139;52
78843;BME280;70542;53.774;-0.352;2024-02-16T13:41:38;101390;;;12.244;52
78843;BME280;70542;53.774;-0.352;2024-02-16T13:47:35;101400;;;11.737;53
78843;BME280;70542;53.774;-0.352;2024-02-16T13:53:38;101410;;;11.471;55
78843;BME280;70542;53.774;-0.352;2024-02-16T13:59:52;101410;;;11.23;55
78843;BME280;70542;53.774;-0.352;2024-02-16T14:05:49;101420;;;11.391;55
78843;BME280;70542;53.774;-0.352;2024-02-16T14:11:46;101440;;;11.748;53
78843;BME280;70542;53.774;-0.352;2024-02-16T14:17:43;101440;;;10.988;55
78843;BME280;70542;53.774;-0.352;2024-02-16T14:23:40;101450;;;11.608;54
78843;BME280;70542;53.774;-0.352;2024-02-16T14:29:39;101460;;;12.301;53
78843;BME280;70542;53.774;-0.352;2024-02-16T14:35:47;101460;;;12.083;53
78843;BME280;70542;53.774;-0.352;2024-02-16T14:42:06;101470;;;11.982;54
78843;BME280;70542;53.774;-0.352;2024-02-16T14:48:08;101470;;;11.615;55
78843;BME280;70542;53.774;-0.352;2024-02-16T14:54:17;101480;;;12.567;51
78843;BME280;70542;53.774;-0.352;2024-02-16T15:00:26;101500;;;12.544;52
78843;BME280;70542;53.774;-0.352;2024-02-16T15:06:23;101520;;;11.963;52
78843;BME280;70542;53.774;-0.352;2024-02-16T15:12:20;101520;;;12.66;51
78843;BME280;70542;53.774;-0.352;2024-02-16T15:18:29;101540;;;12.968;50
78843;BME280;70542;53.774;-0.352;2024-02-16T15:24:26;101540;;;11.935;52
78843;BME280;70542;53.774;-0.352;2024-02-16T15:30:35;101550;;;11.977;51
78843;BME280;70542;53.774;-0.352;2024-02-16T15:36:32;101550;;;12.731;50
78843;BME280;70542;53.774;-0.352;2024-02-16T15:42:28;101560;;;11.698;54
78843;BME280;70542;53.774;-0.352;2024-02-16T15:48:47;101570;;;12.278;52
78843;BME280;70542;53.774;-0.352;2024-02-16T15:54:43;101580;;;11.635;54
78843;BME280;70542;53.774;-0.352;2024-02-16T16:00:52;101600;;;12.133;53
78843;BME280;70542;53.774;-0.352;2024-02-16T16:07:06;101610;;;10.985;56
78843;BME280;70542;53.774;-0.352;2024-02-16T16:13:03;101620;;;10.925;55
78843;BME280;70542;53.774;-0.352;2024-02-16T16:19:00;101640;;;10.511;58
78843;BME280;70542;53.774;-0.352;2024-02-16T16:24:57;101650;;;10.852;57
78843;BME280;70542;53.774;-0.352;2024-02-16T16:31:06;101660;;;11.15;56
78843;BME280;70542;53.774;-0.352;2024-02-16T16:37:02;101680;;;11.356;55
78843;BME280;70542;53.774;-0.352;2024-02-16T16:43:22;101680;;;11.17;56
78843;BME280;70542;53.774;-0.352;2024-02-16T16:49:18;101700;;;11.21;55
78843;BME280;70542;53.774;-0.352;2024-02-16T16:55:16;101700;;;11.193;55
78843;BME280;70542;53.774;-0.352;2024-02-16T17:01:14;101710;;;10.69;56
78843;BME280;70542;53.774;-0.352;2024-02-16T17:07:23;101730;;;10.355;57
78843;BME280;70542;53.774;-0.352;2024-02-16T17:13:32;101740;;;9.775;58
78843;BME280;70542;53.774;-0.352;2024-02-16T17:19:29;101750;;;10.331;57
78843;BME280;70542;53.774;-0.352;2024-02-16T17:25:38;101760;;;9.678;58
78843;BME280;70542;53.774;-0.352;2024-02-16T17:31:36;101780;;;10.351;57
78843;BME280;70542;53.774;-0.352;2024-02-16T17:37:34;101790;;;10.177;57
78843;BME280;70542;53.774;-0.352;2024-02-16T17:43:31;101800;;;10.115;57
78843;BME280;70542;53.774;-0.352;2024-02-16T17:49:28;101810;;;10.912;56
78843;BME280;70542;53.774;-0.352;2024-02-16T17:55:30;101820;;;9.876;58
78843;BME280;70542;53.774;-0.352;2024-02-16T18:07:17;101850;;;10.043;58
78843;BME280;70542;53.774;-0.352;2024-02-16T18:13:31;101870;;;10.206;58
78843;BME280;70542;53.774;-0.352;2024-02-16T18:19:30;101880;;;9.605;59
78843;BME280;70542;53.774;-0.352;2024-02-16T18:25:38;101900;;;9.736;58
78843;BME280;70542;53.774;-0.352;2024-02-16T18:31:46;101910;;;11.199;55
78843;BME280;70542;53.774;-0.352;2024-02-16T18:37:55;101940;;;10.546;55
78843;BME280;70542;53.774;-0.352;2024-02-16T18:43:52;101950;;;11.582;53
78843;BME280;70542;53.774;-0.352;2024-02-16T18:49:49;101960;;;11.58;52
78843;BME280;70542;53.774;-0.352;2024-02-16T18:55:46;101960;;;12.078;51
78843;BME280;70542;53.774;-0.352;2024-02-16T19:01:59;101960;;;11.061;54
78843;BME280;70542;53.774;-0.352;2024-02-16T19:08:01;101970;;;10.585;55
78843;BME280;70542;53.774;-0.352;2024-02-16T19:14:15;101980;;;9.495;58
78843;BME280;70542;53.774;-0.352;2024-02-16T19:20:23;101980;;;9.788;59
78843;BME280;70542;53.774;-0.352;2024-02-16T19:26:20;101990;;;10.845;55
78843;BME280;70542;53.774;-0.352;2024-02-16T19:32:18;102010;;;11.084;54
78843;BME280;70542;53.774;-0.352;2024-02-16T19:38:27;102020;;;10.883;54
78843;BME280;70542;53.774;-0.352;2024-02-16T19:44:24;102020;;;10.687;56
78843;BME280;70542;53.774;-0.352;2024-02-16T19:50:26;102030;;;10.067;56
78843;BME280;70542;53.774;-0.352;2024-02-16T19:56:25;102040;;;10.516;55
78843;BME280;70542;53.774;-0.352;2024-02-16T20:02:27;102040;;;10.936;54
78843;BME280;70542;53.774;-0.352;2024-02-16T20:08:28;102060;;;12.132;51
78843;BME280;70542;53.774;-0.352;2024-02-16T20:14:38;102070;;;11.955;51
78843;BME280;70542;53.774;-0.352;2024-02-16T20:20:35;102080;;;11.993;51
78843;BME280;70542;53.774;-0.352;2024-02-16T20:26:44;102090;;;12.332;49
78843;BME280;70542;53.774;-0.352;2024-02-16T20:32:58;102100;;;12.14;49
78843;BME280;70542;53.774;-0.352;2024-02-16T20:39:07;102120;;;11.986;49
78843;BME280;70542;53.774;-0.352;2024-02-16T20:45:05;102130;;;11.12;50
78843;BME280;70542;53.774;-0.352;2024-02-16T20:51:15;102140;;;12.399;48
78843;BME280;70542;53.774;-0.352;2024-02-16T20:57:24;102140;;;10.005;53
78843;BME280;70542;53.774;-0.352;2024-02-16T21:03:21;102160;;;10.266;54
78843;BME280;70542;53.774;-0.352;2024-02-16T21:09:37;102170;;;10.914;53
78843;BME280;70542;53.774;-0.352;2024-02-16T21:15:34;102180;;;10.963;53
78843;BME280;70542;53.774;-0.352;2024-02-16T21:21:51;102200;;;11.864;50
78843;BME280;70542;53.774;-0.352;2024-02-16T21:28:04;102200;;;12.24;49
78843;BME280;70542;53.774;-0.352;2024-02-16T21:34:14;102210;;;12.131;49
78843;BME280;70542;53.774;-0.352;2024-02-16T21:40:33;102210;;;12.489;49
78843;BME280;70542;53.774;-0.352;2024-02-16T21:46:42;102220;;;12.694;49
78843;BME280;70542;53.774;-0.352;2024-02-16T21:52:51;102220;;;11.664;51
78843;BME280;70542;53.774;-0.352;2024-02-16T21:58:49;102240;;;11.745;51
78843;BME280;70542;53.774;-0.352;2024-02-16T22:04:46;102250;;;10.959;53
78843;BME280;70542;53.774;-0.352;2024-02-16T22:10:55;102250;;;12.025;49
78843;BME280;70542;53.774;-0.352;2024-02-16T22:17:04;102270;;;12.125;50
78843;BME280;70542;53.774;-0.352;2024-02-16T22:23:18;102270;;;14.325;44
78843;BME280;70542;53.774;-0.352;2024-02-16T22:29:26;102290;;;13.622;45
78843;BME280;70542;53.774;-0.352;2024-02-16T22:35:23;102300;;;12.855;47
78843;BME280;70542;53.774;-0.352;2024-02-16T22:41:21;102300;;;12.724;48
78843;BME280;70542;53.774;-0.352;2024-02-16T22:47:18;102310;;;12.334;49
78843;BME280;70542;53.774;-0.352;2024-02-16T22:53:15;102320;;;11.384;51
78843;BME280;70542;53.774;-0.352;2024-02-16T22:59:16;102320;;;12.826;48
78843;BME280;70542;53.774;-0.352;2024-02-16T23:05:13;102320;;;12.951;48
78843;BME280;70542;53.774;-0.352;2024-02-16T23:11:27;102330;;;13.137;48
78843;BME280;70542;53.774;-0.352;2024-02-16T23:17:36;102320;;;12.477;50
78843;BME280;70542;53.774;-0.352;2024-02-16T23:23:34;102330;;;13.083;47
78843;BME280;70542;53.774;-0.352;2024-02-16T23:29:31;102330;;;12.757;49
78843;BME280;70542;53.774;-0.352;2024-02-16T23:35:40;102340;;;12.136;50
78843;BME280;70542;53.774;-0.352;2024-02-16T23:41:49;102350;;;12.261;52
78843;BME280;70542;53.774;-0.352;2024-02-16T23:47:58;102360;;;13.054;47
78843;BME280;70542;53.774;-0.352;2024-02-16T23:53:55;102370;;;11.69;51
